sensor_id;sensor_type;location;lat;lon;timestamp;pressure;altitude;pressure_sealevel;temperature;humidity
30875;BME280;17581;43.222;27.924;2023-08-21T00:00:05;100551.50;;;28.27;33.95
30875;BME280;17581;43.222;27.924;2023-08-21T00:02:31;100558.72;;;28.28;34.11
30875;BME280;17581;43.222;27.924;2023-08-21T00:04:56;100564.75;;;28.25;34.19
30875;BME280;17581;43.222;27.924;2023-08-21T00:07:22;100562.09;;;28.19;34.57
30875;BME280;17581;43.222;27.924;2023-08-21T00:09:48;100571.38;;;28.13;34.83
30875;BME280;17581;43.222;27.924;2023-08-21T00:12:13;100571.22;;;28.07;35.15
30875;BME280;17581;43.222;27.924;2023-08-21T00:14:39;100572.78;;;28.03;35.26
30875;BME280;17581;43.222;27.924;2023-08-21T00:17:04;100567.72;;;28.00;35.09
30875;BME280;17581;43.222;27.924;2023-08-21T00:19:30;100567.59;;;27.95;35.64
30875;BME280;17581;43.222;27.924;2023-08-21T00:21:55;100573.00;;;27.90;35.30
30875;BME280;17581;43.222;27.924;2023-08-21T00:24:21;100562.53;;;27.81;35.91
30875;BME280;17581;43.222;27.924;2023-08-21T00:26:46;100568.16;;;27.74;36.06
30875;BME280;17581;43.222;27.924;2023-08-21T00:29:12;100572.03;;;27.73;36.80
30875;BME280;17581;43.222;27.924;2023-08-21T00:31:37;100562.50;;;27.58;36.93
30875;BME280;17581;43.222;27.924;2023-08-21T00:34:03;100575.84;;;27.61;36.81
30875;BME280;17581;43.222;27.924;2023-08-21T00:36:28;100569.81;;;27.52;36.95
30875;BME280;17581;43.222;27.924;2023-08-21T00:38:54;100575.81;;;27.49;37.08
30875;BME280;17581;43.222;27.924;2023-08-21T00:41:19;100573.34;;;27.41;36.95
30875;BME280;17581;43.222;27.924;2023-08-21T00:43:44;100578.88;;;27.41;37.14
30875;BME280;17581;43.222;27.924;2023-08-21T00:46:10;100573.44;;;27.34;37.11
30875;BME280;17581;43.222;27.924;2023-08-21T00:48:36;100572.25;;;27.30;37.36
30875;BME280;17581;43.222;27.924;2023-08-21T00:51:03;100561.13;;;27.19;37.15
30875;BME280;17581;43.222;27.924;2023-08-21T00:53:28;100564.28;;;27.22;36.98
30875;BME280;17581;43.222;27.924;2023-08-21T00:55:55;100577.88;;;27.24;36.97
30875;BME280;17581;43.222;27.924;2023-08-21T00:58:20;100556.56;;;27.13;36.83
30875;BME280;17581;43.222;27.924;2023-08-21T01:00:47;100563.09;;;27.18;36.16
30875;BME280;17581;43.222;27.924;2023-08-21T01:03:15;100559.69;;;27.16;35.71
30875;BME280;17581;43.222;27.924;2023-08-21T01:05:40;100567.75;;;27.18;35.80
30875;BME280;17581;43.222;27.924;2023-08-21T01:08:14;100567.28;;;27.21;35.84
30875;BME280;17581;43.222;27.924;2023-08-21T01:15:54;100571.91;;;27.38;35.47
30875;BME280;17581;43.222;27.924;2023-08-21T01:18:21;100563.16;;;27.41;35.42
30875;BME280;17581;43.222;27.924;2023-08-21T01:20:48;100564.78;;;27.49;35.21
30875;BME280;17581;43.222;27.924;2023-08-21T01:23:35;100563.19;;;27.53;35.20
30875;BME280;17581;43.222;27.924;2023-08-21T01:26:01;100550.97;;;27.49;35.48
30875;BME280;17581;43.222;27.924;2023-08-21T01:28:27;100558.66;;;27.58;35.22
30875;BME280;17581;43.222;27.924;2023-08-21T01:31:00;100548.78;;;27.51;35.54
30875;BME280;17581;43.222;27.924;2023-08-21T01:33:30;100566.34;;;27.68;34.99
30875;BME280;17581;43.222;27.924;2023-08-21T01:35:58;100558.06;;;27.68;35.17
30875;BME280;17581;43.222;27.924;2023-08-21T01:38:31;100576.59;;;27.79;35.07
30875;BME280;17581;43.222;27.924;2023-08-21T01:40:56;100565.53;;;27.79;34.62
30875;BME280;17581;43.222;27.924;2023-08-21T01:43:22;100566.25;;;27.86;34.94
30875;BME280;17581;43.222;27.924;2023-08-21T01:45:47;100557.84;;;27.81;34.97
30875;BME280;17581;43.222;27.924;2023-08-21T01:48:13;100570.44;;;27.89;34.67
30875;BME280;17581;43.222;27.924;2023-08-21T01:50:38;100554.59;;;27.84;34.86
30875;BME280;17581;43.222;27.924;2023-08-21T01:53:04;100565.28;;;27.92;34.55
30875;BME280;17581;43.222;27.924;2023-08-21T01:55:29;100573.38;;;27.94;34.39
30875;BME280;17581;43.222;27.924;2023-08-21T01:57:54;100563.63;;;27.91;34.50
30875;BME280;17581;43.222;27.924;2023-08-21T02:00:20;100568.31;;;27.91;34.25
30875;BME280;17581;43.222;27.924;2023-08-21T02:02:45;100567.47;;;27.90;34.40
30875;BME280;17581;43.222;27.924;2023-08-21T02:05:11;100550.78;;;27.85;34.81
30875;BME280;17581;43.222;27.924;2023-08-21T02:07:36;100564.59;;;27.85;34.78
30875;BME280;17581;43.222;27.924;2023-08-21T02:10:01;100560.72;;;27.86;34.83
30875;BME280;17581;43.222;27.924;2023-08-21T02:12:27;100568.06;;;27.92;34.63
30875;BME280;17581;43.222;27.924;2023-08-21T02:14:52;100567.00;;;27.93;34.52
30875;BME280;17581;43.222;27.924;2023-08-21T02:17:18;100565.19;;;27.99;34.47
30875;BME280;17581;43.222;27.924;2023-08-21T02:19:43;100563.84;;;28.01;34.31
30875;BME280;17581;43.222;27.924;2023-08-21T02:22:08;100554.47;;;28.02;34.39
30875;BME280;17581;43.222;27.924;2023-08-21T02:24:34;100560.88;;;28.03;34.53
30875;BME280;17581;43.222;27.924;2023-08-21T02:26:59;100552.56;;;28.03;34.72
30875;BME280;17581;43.222;27.924;2023-08-21T02:29:25;100558.72;;;28.05;34.67
30875;BME280;17581;43.222;27.924;2023-08-21T02:31:50;100559.09;;;28.08;34.98
30875;BME280;17581;43.222;27.924;2023-08-21T02:34:15;100554.03;;;28.05;35.04
30875;BME280;17581;43.222;27.924;2023-08-21T02:36:41;100552.84;;;28.13;35.12
30875;BME280;17581;43.222;27.924;2023-08-21T02:39:06;100547.53;;;28.12;34.99
30875;BME280;17581;43.222;27.924;2023-08-21T02:41:32;100552.09;;;28.18;35.61
30875;BME280;17581;43.222;27.924;2023-08-21T02:43:57;100547.41;;;28.18;35.21
30875;BME280;17581;43.222;27.924;2023-08-21T02:46:23;100565.34;;;28.16;35.62
30875;BME280;17581;43.222;27.924;2023-08-21T02:48:48;100562.44;;;28.10;35.93
30875;BME280;17581;43.222;27.924;2023-08-21T02:51:13;100553.19;;;28.05;35.67
30875;BME280;17581;43.222;27.924;2023-08-21T02:53:39;100567.09;;;27.98;36.27
30875;BME280;17581;43.222;27.924;2023-08-21T02:56:04;100560.75;;;27.98;36.24
30875;BME280;17581;43.222;27.924;2023-08-21T02:58:30;100569.16;;;27.91;36.10
30875;BME280;17581;43.222;27.924;2023-08-21T03:00:55;100575.97;;;27.89;36.49
30875;BME280;17581;43.222;27.924;2023-08-21T03:03:21;100573.09;;;27.84;36.87
30875;BME280;17581;43.222;27.924;2023-08-21T03:05:46;100573.09;;;27.72;37.22
30875;BME280;17581;43.222;27.924;2023-08-21T03:08:11;100578.72;;;27.66;37.56
30875;BME280;17581;43.222;27.924;2023-08-21T03:10:37;100566.34;;;27.56;37.92
30875;BME280;17581;43.222;27.924;2023-08-21T03:13:02;100574.59;;;27.45;38.21
30875;BME280;17581;43.222;27.924;2023-08-21T03:15:28;100571.06;;;27.38;38.97
30875;BME280;17581;43.222;27.924;2023-08-21T03:17:54;100570.31;;;27.31;39.37
30875;BME280;17581;43.222;27.924;2023-08-21T03:20:20;100578.47;;;27.26;39.39
30875;BME280;17581;43.222;27.924;2023-08-21T03:22:46;100591.06;;;27.22;39.73
30875;BME280;17581;43.222;27.924;2023-08-21T03:25:12;100573.13;;;27.13;40.04
30875;BME280;17581;43.222;27.924;2023-08-21T03:27:37;100585.88;;;27.14;40.42
30875;BME280;17581;43.222;27.924;2023-08-21T03:30:10;100588.25;;;27.10;40.70
30875;BME280;17581;43.222;27.924;2023-08-21T03:32:35;100584.28;;;27.06;40.87
30875;BME280;17581;43.222;27.924;2023-08-21T03:35:01;100590.03;;;27.04;40.88
30875;BME280;17581;43.222;27.924;2023-08-21T03:37:26;100598.09;;;27.06;41.45
30875;BME280;17581;43.222;27.924;2023-08-21T03:39:52;100596.78;;;27.09;41.68
30875;BME280;17581;43.222;27.924;2023-08-21T03:42:17;100593.38;;;27.07;41.68
30875;BME280;17581;43.222;27.924;2023-08-21T03:44:42;100585.44;;;26.98;42.23
30875;BME280;17581;43.222;27.924;2023-08-21T03:47:08;100594.94;;;27.02;42.40
30875;BME280;17581;43.222;27.924;2023-08-21T03:49:33;100593.13;;;26.96;42.49
30875;BME280;17581;43.222;27.924;2023-08-21T03:51:59;100593.44;;;26.88;42.69
30875;BME280;17581;43.222;27.924;2023-08-21T03:54:24;100590.06;;;26.86;42.78
30875;BME280;17581;43.222;27.924;2023-08-21T03:56:50;100590.06;;;26.86;43.25
30875;BME280;17581;43.222;27.924;2023-08-21T03:59:15;100596.66;;;26.85;43.38
30875;BME280;17581;43.222;27.924;2023-08-21T04:01:40;100604.31;;;26.83;43.88
30875;BME280;17581;43.222;27.924;2023-08-21T04:04:06;100597.53;;;26.79;43.85
30875;BME280;17581;43.222;27.924;2023-08-21T04:06:31;100600.97;;;26.81;44.11
30875;BME280;17581;43.222;27.924;2023-08-21T04:08:57;100593.13;;;26.78;44.03
30875;BME280;17581;43.222;27.924;2023-08-21T04:11:22;100599.28;;;26.80;44.12
30875;BME280;17581;43.222;27.924;2023-08-21T04:13:48;100605.38;;;26.82;44.41
30875;BME280;17581;43.222;27.924;2023-08-21T04:16:13;100614.31;;;26.84;44.48
30875;BME280;17581;43.222;27.924;2023-08-21T04:18:39;100613.66;;;26.82;44.05
30875;BME280;17581;43.222;27.924;2023-08-21T04:21:05;100615.50;;;26.88;44.21
30875;BME280;17581;43.222;27.924;2023-08-21T04:23:31;100600.03;;;26.87;43.99
30875;BME280;17581;43.222;27.924;2023-08-21T04:26:01;100610.88;;;27.00;43.90
30875;BME280;17581;43.222;27.924;2023-08-21T04:28:27;100604.56;;;27.00;43.84
30875;BME280;17581;43.222;27.924;2023-08-21T04:30:52;100602.31;;;27.09;43.51
30875;BME280;17581;43.222;27.924;2023-08-21T04:33:18;100619.50;;;27.22;43.05
30875;BME280;17581;43.222;27.924;2023-08-21T04:35:43;100602.84;;;27.29;42.70
30875;BME280;17581;43.222;27.924;2023-08-21T04:38:08;100607.59;;;27.40;42.99
30875;BME280;17581;43.222;27.924;2023-08-21T04:40:34;100617.13;;;27.44;42.81
30875;BME280;17581;43.222;27.924;2023-08-21T04:42:59;100612.09;;;27.52;42.74
30875;BME280;17581;43.222;27.924;2023-08-21T04:45:25;100612.63;;;27.61;42.32
30875;BME280;17581;43.222;27.924;2023-08-21T04:47:50;100603.00;;;27.64;42.55
30875;BME280;17581;43.222;27.924;2023-08-21T04:50:16;100610.34;;;27.70;42.16
30875;BME280;17581;43.222;27.924;2023-08-21T04:52:41;100614.09;;;27.75;42.28
30875;BME280;17581;43.222;27.924;2023-08-21T04:55:07;100605.44;;;27.83;42.21
30875;BME280;17581;43.222;27.924;2023-08-21T04:57:33;100611.69;;;27.90;41.88
30875;BME280;17581;43.222;27.924;2023-08-21T04:59:58;100610.28;;;27.99;41.60
30875;BME280;17581;43.222;27.924;2023-08-21T05:02:23;100602.97;;;28.05;41.59
30875;BME280;17581;43.222;27.924;2023-08-21T05:04:49;100613.91;;;28.12;41.54
30875;BME280;17581;43.222;27.924;2023-08-21T05:07:14;100614.41;;;28.20;41.67
30875;BME280;17581;43.222;27.924;2023-08-21T05:09:40;100614.88;;;28.29;41.32
30875;BME280;17581;43.222;27.924;2023-08-21T05:12:07;100614.53;;;28.37;40.94
30875;BME280;17581;43.222;27.924;2023-08-21T05:14:32;100602.22;;;28.44;40.84
30875;BME280;17581;43.222;27.924;2023-08-21T05:16:58;100603.81;;;28.52;40.75
30875;BME280;17581;43.222;27.924;2023-08-21T05:19:24;100603.31;;;28.55;40.34
30875;BME280;17581;43.222;27.924;2023-08-21T05:21:50;100622.56;;;28.73;39.91
30875;BME280;17581;43.222;27.924;2023-08-21T05:24:15;100622.81;;;28.83;39.81
30875;BME280;17581;43.222;27.924;2023-08-21T05:26:41;100622.75;;;28.95;39.58
30875;BME280;17581;43.222;27.924;2023-08-21T05:29:07;100613.69;;;28.99;39.48
30875;BME280;17581;43.222;27.924;2023-08-21T05:31:33;100627.19;;;29.07;39.51
30875;BME280;17581;43.222;27.924;2023-08-21T05:33:58;100605.13;;;29.12;39.36
30875;BME280;17581;43.222;27.924;2023-08-21T05:36:24;100620.38;;;29.27;39.24
30875;BME280;17581;43.222;27.924;2023-08-21T05:38:49;100628.66;;;29.38;39.53
30875;BME280;17581;43.222;27.924;2023-08-21T05:41:16;100626.56;;;29.45;40.04
30875;BME280;17581;43.222;27.924;2023-08-21T05:43:42;100638.69;;;29.56;40.12
30875;BME280;17581;43.222;27.924;2023-08-21T05:46:08;100627.59;;;29.56;40.79
30875;BME280;17581;43.222;27.924;2023-08-21T05:48:34;100632.66;;;29.59;40.71
30875;BME280;17581;43.222;27.924;2023-08-21T05:50:59;100639.97;;;29.65;40.89
30875;BME280;17581;43.222;27.924;2023-08-21T05:53:25;100630.06;;;29.69;40.95
30875;BME280;17581;43.222;27.924;2023-08-21T05:55:52;100635.34;;;29.70;40.88
30875;BME280;17581;43.222;27.924;2023-08-21T05:58:17;100633.44;;;29.71;41.02
30875;BME280;17581;43.222;27.924;2023-08-21T06:00:43;100632.78;;;29.81;39.90
30875;BME280;17581;43.222;27.924;2023-08-21T06:03:09;100629.25;;;29.85;39.42
30875;BME280;17581;43.222;27.924;2023-08-21T06:05:35;100639.34;;;29.91;39.96
30875;BME280;17581;43.222;27.924;2023-08-21T06:08:00;100638.94;;;29.99;40.28
30875;BME280;17581;43.222;27.924;2023-08-21T06:10:26;100643.50;;;30.05;40.33
30875;BME280;17581;43.222;27.924;2023-08-21T06:12:51;100640.09;;;30.03;40.38
30875;BME280;17581;43.222;27.924;2023-08-21T06:15:17;100653.56;;;30.11;40.58
30875;BME280;17581;43.222;27.924;2023-08-21T06:17:42;100640.78;;;30.10;40.48
30875;BME280;17581;43.222;27.924;2023-08-21T06:20:08;100643.13;;;30.18;40.31
30875;BME280;17581;43.222;27.924;2023-08-21T06:22:39;100644.31;;;30.22;40.33
30875;BME280;17581;43.222;27.924;2023-08-21T06:25:05;100650.19;;;30.26;39.99
30875;BME280;17581;43.222;27.924;2023-08-21T06:27:30;100646.66;;;30.31;40.35
30875;BME280;17581;43.222;27.924;2023-08-21T06:29:56;100655.91;;;30.36;40.19
30875;BME280;17581;43.222;27.924;2023-08-21T06:32:21;100663.97;;;30.38;39.74
30875;BME280;17581;43.222;27.924;2023-08-21T06:34:47;100667.69;;;30.43;39.58
30875;BME280;17581;43.222;27.924;2023-08-21T06:37:12;100664.50;;;30.51;39.57
30875;BME280;17581;43.222;27.924;2023-08-21T06:39:38;100655.34;;;30.51;39.52
30875;BME280;17581;43.222;27.924;2023-08-21T06:42:04;100652.06;;;30.54;39.01
30875;BME280;17581;43.222;27.924;2023-08-21T06:44:29;100668.47;;;30.77;39.16
30875;BME280;17581;43.222;27.924;2023-08-21T06:46:55;100659.06;;;30.78;38.89
30875;BME280;17581;43.222;27.924;2023-08-21T06:49:20;100658.69;;;30.91;38.81
30875;BME280;17581;43.222;27.924;2023-08-21T06:51:45;100650.78;;;31.00;38.55
30875;BME280;17581;43.222;27.924;2023-08-21T06:54:11;100628.13;;;30.91;38.46
30875;BME280;17581;43.222;27.924;2023-08-21T06:56:36;100645.34;;;31.10;38.08
30875;BME280;17581;43.222;27.924;2023-08-21T06:59:02;100669.25;;;31.33;37.40
30875;BME280;17581;43.222;27.924;2023-08-21T07:01:28;100657.34;;;31.37;37.16
30875;BME280;17581;43.222;27.924;2023-08-21T07:03:54;100661.59;;;31.45;37.22
30875;BME280;17581;43.222;27.924;2023-08-21T07:06:19;100667.09;;;31.61;36.56
30875;BME280;17581;43.222;27.924;2023-08-21T07:08:45;100668.88;;;31.72;36.65
30875;BME280;17581;43.222;27.924;2023-08-21T07:11:10;100668.69;;;31.84;36.68
30875;BME280;17581;43.222;27.924;2023-08-21T07:13:37;100662.97;;;31.96;36.26
30875;BME280;17581;43.222;27.924;2023-08-21T07:16:03;100653.91;;;32.05;36.70
30875;BME280;17581;43.222;27.924;2023-08-21T07:18:32;100665.53;;;32.29;35.79
30875;BME280;17581;43.222;27.924;2023-08-21T07:20:58;100663.97;;;32.43;35.54
30875;BME280;17581;43.222;27.924;2023-08-21T07:23:23;100662.06;;;32.54;35.29
30875;BME280;17581;43.222;27.924;2023-08-21T07:25:49;100663.28;;;32.63;34.77
30875;BME280;17581;43.222;27.924;2023-08-21T07:28:16;100665.03;;;32.79;34.56
30875;BME280;17581;43.222;27.924;2023-08-21T07:30:41;100659.50;;;32.84;34.48
30875;BME280;17581;43.222;27.924;2023-08-21T07:33:07;100661.22;;;32.95;34.58
30875;BME280;17581;43.222;27.924;2023-08-21T07:35:32;100653.25;;;33.09;34.15
30875;BME280;17581;43.222;27.924;2023-08-21T07:37:58;100655.81;;;33.20;34.20
30875;BME280;17581;43.222;27.924;2023-08-21T07:40:23;100629.59;;;33.21;33.91
30875;BME280;17581;43.222;27.924;2023-08-21T07:42:49;100648.59;;;33.39;33.46
30875;BME280;17581;43.222;27.924;2023-08-21T07:45:15;100647.78;;;33.49;33.51
30875;BME280;17581;43.222;27.924;2023-08-21T07:47:40;100644.81;;;33.61;33.56
30875;BME280;17581;43.222;27.924;2023-08-21T07:50:06;100644.25;;;33.74;33.35
30875;BME280;17581;43.222;27.924;2023-08-21T07:52:32;100652.63;;;33.89;33.05
30875;BME280;17581;43.222;27.924;2023-08-21T07:54:58;100640.06;;;33.91;32.85
30875;BME280;17581;43.222;27.924;2023-08-21T07:57:27;100649.28;;;34.07;32.76
30875;BME280;17581;43.222;27.924;2023-08-21T07:59:53;100649.31;;;34.17;33.00
30875;BME280;17581;43.222;27.924;2023-08-21T08:02:18;100656.88;;;34.22;32.62
30875;BME280;17581;43.222;27.924;2023-08-21T08:04:44;100651.53;;;34.25;32.57
30875;BME280;17581;43.222;27.924;2023-08-21T08:07:09;100650.69;;;34.35;32.38
30875;BME280;17581;43.222;27.924;2023-08-21T08:09:35;100647.91;;;34.35;31.50
30875;BME280;17581;43.222;27.924;2023-08-21T08:12:01;100647.91;;;34.40;31.96
30875;BME280;17581;43.222;27.924;2023-08-21T08:14:26;100651.50;;;34.51;32.14
30875;BME280;17581;43.222;27.924;2023-08-21T08:16:52;100648.13;;;34.59;31.84
30875;BME280;17581;43.222;27.924;2023-08-21T08:19:17;100638.69;;;34.65;31.73
30875;BME280;17581;43.222;27.924;2023-08-21T08:21:43;100661.00;;;34.80;31.58
30875;BME280;17581;43.222;27.924;2023-08-21T08:24:08;100647.53;;;34.87;31.66
30875;BME280;17581;43.222;27.924;2023-08-21T08:26:34;100652.56;;;34.95;31.00
30875;BME280;17581;43.222;27.924;2023-08-21T08:28:59;100646.97;;;34.90;31.01
30875;BME280;17581;43.222;27.924;2023-08-21T08:31:25;100649.16;;;35.03;31.10
30875;BME280;17581;43.222;27.924;2023-08-21T08:33:53;100634.06;;;34.99;30.80
30875;BME280;17581;43.222;27.924;2023-08-21T08:36:18;100644.69;;;35.12;30.71
30875;BME280;17581;43.222;27.924;2023-08-21T08:38:44;100640.47;;;35.20;31.20
30875;BME280;17581;43.222;27.924;2023-08-21T08:43:57;100636.16;;;35.37;30.78
30875;BME280;17581;43.222;27.924;2023-08-21T08:46:24;100623.03;;;35.38;29.93
30875;BME280;17581;43.222;27.924;2023-08-21T08:48:51;100633.84;;;35.49;30.04
30875;BME280;17581;43.222;27.924;2023-08-21T08:51:16;100620.44;;;35.46;29.87
30875;BME280;17581;43.222;27.924;2023-08-21T08:53:42;100620.66;;;35.55;29.53
30875;BME280;17581;43.222;27.924;2023-08-21T08:56:08;100618.09;;;35.64;28.35
30875;BME280;17581;43.222;27.924;2023-08-21T08:58:33;100612.81;;;35.57;28.05
30875;BME280;17581;43.222;27.924;2023-08-21T09:00:59;100612.22;;;35.65;28.36
30875;BME280;17581;43.222;27.924;2023-08-21T09:03:24;100597.94;;;35.67;27.65
30875;BME280;17581;43.222;27.924;2023-08-21T09:05:50;100598.50;;;35.69;27.02
30875;BME280;17581;43.222;27.924;2023-08-21T09:08:16;100583.34;;;35.70;27.26
30875;BME280;17581;43.222;27.924;2023-08-21T09:10:42;100599.19;;;35.84;27.75
30875;BME280;17581;43.222;27.924;2023-08-21T09:13:10;100602.56;;;35.86;27.76
30875;BME280;17581;43.222;27.924;2023-08-21T09:15:36;100599.75;;;35.86;28.08
30875;BME280;17581;43.222;27.924;2023-08-21T09:18:02;100606.19;;;35.87;28.13
30875;BME280;17581;43.222;27.924;2023-08-21T09:20:27;100603.59;;;35.95;28.57
30875;BME280;17581;43.222;27.924;2023-08-21T09:22:59;100598.25;;;35.94;28.33
30875;BME280;17581;43.222;27.924;2023-08-21T09:25:25;100600.97;;;36.04;28.14
30875;BME280;17581;43.222;27.924;2023-08-21T09:27:52;100600.97;;;36.04;27.61
30875;BME280;17581;43.222;27.924;2023-08-21T09:30:20;100583.63;;;36.07;27.24
30875;BME280;17581;43.222;27.924;2023-08-21T09:32:58;100591.78;;;36.32;25.64
30875;BME280;17581;43.222;27.924;2023-08-21T09:35:32;100586.97;;;36.38;25.60
30875;BME280;17581;43.222;27.924;2023-08-21T09:37:59;100594.91;;;36.54;25.66
30875;BME280;17581;43.222;27.924;2023-08-21T09:40:24;100594.78;;;36.70;25.55
30875;BME280;17581;43.222;27.924;2023-08-21T09:42:54;100576.19;;;36.74;25.34
30875;BME280;17581;43.222;27.924;2023-08-21T09:45:24;100595.47;;;37.04;24.95
30875;BME280;17581;43.222;27.924;2023-08-21T09:47:51;100576.78;;;37.18;24.53
30875;BME280;17581;43.222;27.924;2023-08-21T09:50:18;100587.81;;;37.28;24.95
30875;BME280;17581;43.222;27.924;2023-08-21T09:52:44;100589.34;;;37.39;25.17
30875;BME280;17581;43.222;27.924;2023-08-21T09:55:10;100574.97;;;37.46;24.99
30875;BME280;17581;43.222;27.924;2023-08-21T09:57:36;100588.00;;;37.55;24.29
30875;BME280;17581;43.222;27.924;2023-08-21T10:00:02;100576.25;;;37.53;23.89
30875;BME280;17581;43.222;27.924;2023-08-21T10:02:42;100579.66;;;37.50;24.65
30875;BME280;17581;43.222;27.924;2023-08-21T10:05:08;100574.56;;;37.52;24.94
30875;BME280;17581;43.222;27.924;2023-08-21T10:07:34;100572.34;;;37.68;24.21
30875;BME280;17581;43.222;27.924;2023-08-21T10:10:00;100552.47;;;37.65;24.43
30875;BME280;17581;43.222;27.924;2023-08-21T10:12:26;100573.56;;;37.81;24.55
30875;BME280;17581;43.222;27.924;2023-08-21T10:14:52;100557.09;;;37.74;24.17
30875;BME280;17581;43.222;27.924;2023-08-21T10:17:17;100567.72;;;37.77;24.48
30875;BME280;17581;43.222;27.924;2023-08-21T10:19:50;100560.25;;;37.86;24.13
30875;BME280;17581;43.222;27.924;2023-08-21T10:22:37;100562.63;;;37.98;23.71
30875;BME280;17581;43.222;27.924;2023-08-21T10:25:03;100573.13;;;37.74;24.26
30875;BME280;17581;43.222;27.924;2023-08-21T10:27:29;100558.38;;;37.82;24.19
30875;BME280;17581;43.222;27.924;2023-08-21T10:29:59;100572.56;;;37.90;23.90
30875;BME280;17581;43.222;27.924;2023-08-21T10:32:24;100571.66;;;37.95;24.07
30875;BME280;17581;43.222;27.924;2023-08-21T10:34:53;100571.56;;;38.00;23.64
30875;BME280;17581;43.222;27.924;2023-08-21T10:37:19;100568.03;;;38.08;23.83
30875;BME280;17581;43.222;27.924;2023-08-21T10:39:56;100569.09;;;38.12;23.79
30875;BME280;17581;43.222;27.924;2023-08-21T10:42:39;100559.31;;;38.23;23.19
30875;BME280;17581;43.222;27.924;2023-08-21T10:45:12;100574.53;;;38.22;23.14
30875;BME280;17581;43.222;27.924;2023-08-21T10:47:37;100550.78;;;38.14;23.31
30875;BME280;17581;43.222;27.924;2023-08-21T10:50:07;100553.81;;;38.18;22.93
30875;BME280;17581;43.222;27.924;2023-08-21T10:52:43;100569.53;;;38.33;22.87
30875;BME280;17581;43.222;27.924;2023-08-21T10:55:13;100562.28;;;38.32;22.66
30875;BME280;17581;43.222;27.924;2023-08-21T10:57:39;100565.56;;;38.20;22.49
30875;BME280;17581;43.222;27.924;2023-08-21T11:00:26;100555.34;;;38.10;22.63
30875;BME280;17581;43.222;27.924;2023-08-21T11:02:51;100569.09;;;38.12;22.74
30875;BME280;17581;43.222;27.924;2023-08-21T11:05:17;100569.88;;;37.99;23.78
30875;BME280;17581;43.222;27.924;2023-08-21T11:07:46;100553.50;;;37.87;24.70
30875;BME280;17581;43.222;27.924;2023-08-21T11:10:22;100560.56;;;38.03;24.98
30875;BME280;17581;43.222;27.924;2023-08-21T11:15:18;100568.88;;;37.95;24.37
30875;BME280;17581;43.222;27.924;2023-08-21T11:18:00;100563.84;;;37.92;25.67
30875;BME280;17581;43.222;27.924;2023-08-21T11:20:33;100565.22;;;37.76;26.83
30875;BME280;17581;43.222;27.924;2023-08-21T11:23:00;100563.50;;;37.61;29.45
30875;BME280;17581;43.222;27.924;2023-08-21T11:25:28;100560.59;;;37.66;30.86
30875;BME280;17581;43.222;27.924;2023-08-21T11:27:55;100563.72;;;37.65;35.85
30875;BME280;17581;43.222;27.924;2023-08-21T11:30:22;100561.91;;;37.36;37.37
30875;BME280;17581;43.222;27.924;2023-08-21T11:32:48;100583.13;;;36.81;39.83
30875;BME280;17581;43.222;27.924;2023-08-21T11:35:14;100579.78;;;36.55;42.54
30875;BME280;17581;43.222;27.924;2023-08-21T11:38:06;100581.38;;;36.04;45.24
30875;BME280;17581;43.222;27.924;2023-08-21T11:40:34;100583.72;;;35.92;45.97
30875;BME280;17581;43.222;27.924;2023-08-21T11:43:01;100575.88;;;35.55;45.67
30875;BME280;17581;43.222;27.924;2023-08-21T11:45:27;100585.31;;;35.25;46.16
30875;BME280;17581;43.222;27.924;2023-08-21T11:47:55;100577.88;;;34.95;46.07
30875;BME280;17581;43.222;27.924;2023-08-21T11:50:21;100582.09;;;34.93;45.58
30875;BME280;17581;43.222;27.924;2023-08-21T11:52:46;100567.34;;;34.82;47.12
30875;BME280;17581;43.222;27.924;2023-08-21T11:55:12;100582.13;;;34.88;47.33
30875;BME280;17581;43.222;27.924;2023-08-21T11:57:55;100558.72;;;34.74;47.83
30875;BME280;17581;43.222;27.924;2023-08-21T12:00:27;100570.09;;;34.87;47.66
30875;BME280;17581;43.222;27.924;2023-08-21T12:02:59;100586.00;;;34.97;47.42
30875;BME280;17581;43.222;27.924;2023-08-21T12:05:26;100585.97;;;35.07;47.55
30875;BME280;17581;43.222;27.924;2023-08-21T12:07:52;100584.81;;;35.08;48.48
30875;BME280;17581;43.222;27.924;2023-08-21T12:10:28;100577.66;;;34.92;48.44
30875;BME280;17581;43.222;27.924;2023-08-21T12:12:55;100589.63;;;34.97;48.42
30875;BME280;17581;43.222;27.924;2023-08-21T12:15:21;100585.97;;;35.02;48.26
30875;BME280;17581;43.222;27.924;2023-08-21T12:17:46;100594.41;;;34.92;47.50
30875;BME280;17581;43.222;27.924;2023-08-21T12:20:12;100589.41;;;34.89;47.41
30875;BME280;17581;43.222;27.924;2023-08-21T12:22:38;100582.66;;;34.90;46.29
30875;BME280;17581;43.222;27.924;2023-08-21T12:25:05;100587.16;;;34.91;44.51
30875;BME280;17581;43.222;27.924;2023-08-21T12:27:31;100581.03;;;34.89;44.14
30875;BME280;17581;43.222;27.924;2023-08-21T12:29:56;100584.00;;;35.03;43.19
30875;BME280;17581;43.222;27.924;2023-08-21T12:32:21;100568.06;;;35.03;44.48
30875;BME280;17581;43.222;27.924;2023-08-21T12:34:47;100591.50;;;35.17;44.73
30875;BME280;17581;43.222;27.924;2023-08-21T12:37:13;100574.19;;;35.15;44.93
30875;BME280;17581;43.222;27.924;2023-08-21T12:39:38;100565.53;;;35.17;47.41
30875;BME280;17581;43.222;27.924;2023-08-21T12:42:04;100585.16;;;34.96;48.34
30875;BME280;17581;43.222;27.924;2023-08-21T12:44:29;100579.31;;;34.93;48.14
30875;BME280;17581;43.222;27.924;2023-08-21T12:46:55;100589.44;;;34.79;48.61